sensor_id;sensor_type;location;lat;lon;timestamp;temperature;humidity
6672;DHT22;3372;48.690;12.362;2023-05-16T00:01:06;14.60;64.50
6672;DHT22;3372;48.690;12.362;2023-05-16T00:03:32;14.60;64.70
6672;DHT22;3372;48.690;12.362;2023-05-16T00:05:58;14.60;64.70
6672;DHT22;3372;48.690;12.362;2023-05-16T00:08:26;14.60;64.70
6672;DHT22;3372;48.690;12.362;2023-05-16T00:10:52;14.60;65.00
6672;DHT22;3372;48.690;12.362;2023-05-16T00:13:17;14.60;65.00
6672;DHT22;3372;48.690;12.362;2023-05-16T00:15:46;14.60;64.40
6672;DHT22;3372;48.690;12.362;2023-05-16T00:18:12;14.60;64.50
6672;DHT22;3372;48.690;12.362;2023-05-16T00:20:40;14.60;64.90
6672;DHT22;3372;48.690;12.362;2023-05-16T00:23:06;14.50;64.90
6672;DHT22;3372;48.690;12.362;2023-05-16T00:25:32;14.50;64.70
6672;DHT22;3372;48.690;12.362;2023-05-16T00:27:57;14.50;65.70
6672;DHT22;3372;48.690;12.362;2023-05-16T00:30:23;14.50;66.00
6672;DHT22;3372;48.690;12.362;2023-05-16T00:32:48;14.50;65.90
6672;DHT22;3372;48.690;12.362;2023-05-16T00:35:14;14.50;65.90
6672;DHT22;3372;48.690;12.362;2023-05-16T00:37:40;14.50;65.70
6672;DHT22;3372;48.690;12.362;2023-05-16T00:40:06;14.50;66.30
6672;DHT22;3372;48.690;12.362;2023-05-16T00:42:32;14.50;66.00
6672;DHT22;3372;48.690;12.362;2023-05-16T00:44:58;14.50;66.20
6672;DHT22;3372;48.690;12.362;2023-05-16T00:47:23;14.50;66.00
6672;DHT22;3372;48.690;12.362;2023-05-16T00:49:49;14.50;66.20
6672;DHT22;3372;48.690;12.362;2023-05-16T00:52:14;14.40;66.00
6672;DHT22;3372;48.690;12.362;2023-05-16T00:54:40;14.40;66.50
6672;DHT22;3372;48.690;12.362;2023-05-16T00:57:06;14.40;65.70
6672;DHT22;3372;48.690;12.362;2023-05-16T00:59:32;14.40;65.80
6672;DHT22;3372;48.690;12.362;2023-05-16T01:01:58;14.40;66.20
6672;DHT22;3372;48.690;12.362;2023-05-16T01:04:24;14.40;65.80
6672;DHT22;3372;48.690;12.362;2023-05-16T01:06:51;14.40;65.80
6672;DHT22;3372;48.690;12.362;2023-05-16T01:09:16;14.40;66.10
6672;DHT22;3372;48.690;12.362;2023-05-16T01:17:27;14.40;66.60
6672;DHT22;3372;48.690;12.362;2023-05-16T01:22:51;14.30;66.50
6672;DHT22;3372;48.690;12.362;2023-05-16T01:28:09;14.20;68.40
6672;DHT22;3372;48.690;12.362;2023-05-16T01:30:37;14.20;68.10
6672;DHT22;3372;48.690;12.362;2023-05-16T01:33:03;14.20;67.60
6672;DHT22;3372;48.690;12.362;2023-05-16T01:35:29;14.20;68.40
6672;DHT22;3372;48.690;12.362;2023-05-16T01:38:10;14.20;68.00
6672;DHT22;3372;48.690;12.362;2023-05-16T01:40:47;14.20;69.30
6672;DHT22;3372;48.690;12.362;2023-05-16T01:43:20;14.30;67.80
6672;DHT22;3372;48.690;12.362;2023-05-16T01:45:56;14.20;67.60
6672;DHT22;3372;48.690;12.362;2023-05-16T01:48:28;14.20;68.90
6672;DHT22;3372;48.690;12.362;2023-05-16T01:50:55;14.20;67.60
6672;DHT22;3372;48.690;12.362;2023-05-16T01:53:36;14.20;67.40
6672;DHT22;3372;48.690;12.362;2023-05-16T01:56:03;14.20;68.60
6672;DHT22;3372;48.690;12.362;2023-05-16T01:58:32;14.20;67.50
6672;DHT22;3372;48.690;12.362;2023-05-16T02:01:03;14.20;68.00
6672;DHT22;3372;48.690;12.362;2023-05-16T02:03:30;14.20;68.10
6672;DHT22;3372;48.690;12.362;2023-05-16T02:05:56;14.20;67.90
6672;DHT22;3372;48.690;12.362;2023-05-16T02:08:23;14.10;67.90
6672;DHT22;3372;48.690;12.362;2023-05-16T02:10:48;14.20;67.80
6672;DHT22;3372;48.690;12.362;2023-05-16T02:13:14;14.10;68.30
6672;DHT22;3372;48.690;12.362;2023-05-16T02:15:40;14.20;68.10
6672;DHT22;3372;48.690;12.362;2023-05-16T02:18:05;14.10;68.70
6672;DHT22;3372;48.690;12.362;2023-05-16T02:20:31;14.10;68.90
6672;DHT22;3372;48.690;12.362;2023-05-16T02:22:57;14.20;68.10
6672;DHT22;3372;48.690;12.362;2023-05-16T02:25:23;14.10;67.90
6672;DHT22;3372;48.690;12.362;2023-05-16T02:27:49;14.10;67.90
6672;DHT22;3372;48.690;12.362;2023-05-16T02:30:14;14.20;67.80
6672;DHT22;3372;48.690;12.362;2023-05-16T02:32:40;14.10;68.20
6672;DHT22;3372;48.690;12.362;2023-05-16T02:35:09;14.10;68.70
6672;DHT22;3372;48.690;12.362;2023-05-16T02:37:35;14.10;69.30
6672;DHT22;3372;48.690;12.362;2023-05-16T02:40:01;14.10;69.20
6672;DHT22;3372;48.690;12.362;2023-05-16T02:42:26;14.10;69.20
6672;DHT22;3372;48.690;12.362;2023-05-16T02:44:52;14.10;69.00
6672;DHT22;3372;48.690;12.362;2023-05-16T02:47:18;14.00;69.50
6672;DHT22;3372;48.690;12.362;2023-05-16T02:49:43;14.00;69.10
6672;DHT22;3372;48.690;12.362;2023-05-16T02:52:09;14.10;69.00
6672;DHT22;3372;48.690;12.362;2023-05-16T02:54:34;14.00;69.10
6672;DHT22;3372;48.690;12.362;2023-05-16T02:57:00;14.10;68.90
6672;DHT22;3372;48.690;12.362;2023-05-16T02:59:26;14.00;69.30
6672;DHT22;3372;48.690;12.362;2023-05-16T03:01:51;14.00;69.00
6672;DHT22;3372;48.690;12.362;2023-05-16T03:04:17;14.10;69.10
6672;DHT22;3372;48.690;12.362;2023-05-16T03:06:43;14.10;68.60
6672;DHT22;3372;48.690;12.362;2023-05-16T03:09:08;14.10;68.80
6672;DHT22;3372;48.690;12.362;2023-05-16T03:11:34;14.10;68.80
6672;DHT22;3372;48.690;12.362;2023-05-16T03:14:00;14.10;69.30
6672;DHT22;3372;48.690;12.362;2023-05-16T03:16:25;14.10;69.00
6672;DHT22;3372;48.690;12.362;2023-05-16T03:18:51;14.10;69.70
6672;DHT22;3372;48.690;12.362;2023-05-16T03:21:16;14.10;69.10
6672;DHT22;3372;48.690;12.362;2023-05-16T03:23:42;14.00;70.10
6672;DHT22;3372;48.690;12.362;2023-05-16T03:26:08;14.00;70.40
6672;DHT22;3372;48.690;12.362;2023-05-16T03:28:33;14.00;69.50
6672;DHT22;3372;48.690;12.362;2023-05-16T03:30:59;14.10;69.20
6672;DHT22;3372;48.690;12.362;2023-05-16T03:33:24;14.10;69.30
6672;DHT22;3372;48.690;12.362;2023-05-16T03:35:50;14.10;69.30
6672;DHT22;3372;48.690;12.362;2023-05-16T03:38:16;14.00;69.30
6672;DHT22;3372;48.690;12.362;2023-05-16T03:40:42;14.00;70.00
6672;DHT22;3372;48.690;12.362;2023-05-16T03:43:08;14.10;70.40
6672;DHT22;3372;48.690;12.362;2023-05-16T03:45:33;14.10;69.90
6672;DHT22;3372;48.690;12.362;2023-05-16T03:47:59;14.00;70.40
6672;DHT22;3372;48.690;12.362;2023-05-16T03:50:24;14.10;70.30
6672;DHT22;3372;48.690;12.362;2023-05-16T03:52:50;14.10;70.00
6672;DHT22;3372;48.690;12.362;2023-05-16T03:55:18;14.10;69.80
6672;DHT22;3372;48.690;12.362;2023-05-16T03:57:44;14.10;70.00
6672;DHT22;3372;48.690;12.362;2023-05-16T04:00:10;14.10;70.10
6672;DHT22;3372;48.690;12.362;2023-05-16T04:02:37;14.10;70.60
6672;DHT22;3372;48.690;12.362;2023-05-16T04:05:08;14.10;70.20
6672;DHT22;3372;48.690;12.362;2023-05-16T04:07:34;14.10;71.30
6672;DHT22;3372;48.690;12.362;2023-05-16T04:10:00;14.10;71.80
6672;DHT22;3372;48.690;12.362;2023-05-16T04:12:26;14.10;72.00
6672;DHT22;3372;48.690;12.362;2023-05-16T04:14:51;14.00;72.80
6672;DHT22;3372;48.690;12.362;2023-05-16T04:17:17;14.00;73.20
6672;DHT22;3372;48.690;12.362;2023-05-16T04:19:43;14.00;74.40
6672;DHT22;3372;48.690;12.362;2023-05-16T04:22:08;14.00;73.90
6672;DHT22;3372;48.690;12.362;2023-05-16T04:24:34;14.10;74.10
6672;DHT22;3372;48.690;12.362;2023-05-16T04:27:00;14.00;73.90
6672;DHT22;3372;48.690;12.362;2023-05-16T04:29:25;14.10;73.90
6672;DHT22;3372;48.690;12.362;2023-05-16T04:31:51;14.10;74.60
6672;DHT22;3372;48.690;12.362;2023-05-16T04:34:17;14.20;74.60
6672;DHT22;3372;48.690;12.362;2023-05-16T04:36:43;14.20;74.70
6672;DHT22;3372;48.690;12.362;2023-05-16T04:39:08;14.20;76.10
6672;DHT22;3372;48.690;12.362;2023-05-16T04:41:34;14.20;75.80
6672;DHT22;3372;48.690;12.362;2023-05-16T04:44:01;14.30;76.40
6672;DHT22;3372;48.690;12.362;2023-05-16T04:46:29;14.30;75.60
6672;DHT22;3372;48.690;12.362;2023-05-16T04:48:54;14.30;75.60
6672;DHT22;3372;48.690;12.362;2023-05-16T04:51:20;14.30;76.40
6672;DHT22;3372;48.690;12.362;2023-05-16T04:53:46;14.30;76.30
6672;DHT22;3372;48.690;12.362;2023-05-16T04:56:12;14.30;76.70
6672;DHT22;3372;48.690;12.362;2023-05-16T04:58:37;14.30;77.10
6672;DHT22;3372;48.690;12.362;2023-05-16T05:01:03;14.30;78.00
6672;DHT22;3372;48.690;12.362;2023-05-16T05:03:29;14.30;77.90
6672;DHT22;3372;48.690;12.362;2023-05-16T05:05:54;14.40;79.20
6672;DHT22;3372;48.690;12.362;2023-05-16T05:08:21;14.40;78.10
6672;DHT22;3372;48.690;12.362;2023-05-16T05:10:47;14.50;78.10
6672;DHT22;3372;48.690;12.362;2023-05-16T05:13:12;14.50;78.50
6672;DHT22;3372;48.690;12.362;2023-05-16T05:15:38;14.60;78.80
6672;DHT22;3372;48.690;12.362;2023-05-16T05:18:04;14.60;78.60
6672;DHT22;3372;48.690;12.362;2023-05-16T05:20:29;14.60;77.20
6672;DHT22;3372;48.690;12.362;2023-05-16T05:22:55;14.70;77.60
6672;DHT22;3372;48.690;12.362;2023-05-16T05:25:21;14.60;78.20
6672;DHT22;3372;48.690;12.362;2023-05-16T05:27:47;14.40;79.30
6672;DHT22;3372;48.690;12.362;2023-05-16T05:30:12;14.30;80.20
6672;DHT22;3372;48.690;12.362;2023-05-16T05:32:38;14.30;81.40
6672;DHT22;3372;48.690;12.362;2023-05-16T05:35:04;14.20;82.10
6672;DHT22;3372;48.690;12.362;2023-05-16T05:37:30;14.30;83.90
6672;DHT22;3372;48.690;12.362;2023-05-16T05:39:55;14.40;83.80
6672;DHT22;3372;48.690;12.362;2023-05-16T05:42:21;14.40;84.20
6672;DHT22;3372;48.690;12.362;2023-05-16T05:44:47;14.40;85.00
6672;DHT22;3372;48.690;12.362;2023-05-16T05:47:13;14.30;85.10
6672;DHT22;3372;48.690;12.362;2023-05-16T05:49:38;14.50;86.10
6672;DHT22;3372;48.690;12.362;2023-05-16T05:52:04;14.40;87.40
6672;DHT22;3372;48.690;12.362;2023-05-16T05:54:30;14.60;87.70
6672;DHT22;3372;48.690;12.362;2023-05-16T05:56:58;14.70;86.20
6672;DHT22;3372;48.690;12.362;2023-05-16T05:59:24;14.70;85.50
6672;DHT22;3372;48.690;12.362;2023-05-16T06:01:50;14.50;87.70
6672;DHT22;3372;48.690;12.362;2023-05-16T06:04:19;14.50;88.50
6672;DHT22;3372;48.690;12.362;2023-05-16T06:06:45;14.50;90.30
6672;DHT22;3372;48.690;12.362;2023-05-16T06:09:11;14.40;89.30
6672;DHT22;3372;48.690;12.362;2023-05-16T06:11:38;14.40;90.10
6672;DHT22;3372;48.690;12.362;2023-05-16T06:14:03;14.50;89.30
6672;DHT22;3372;48.690;12.362;2023-05-16T06:16:29;14.50;89.40
6672;DHT22;3372;48.690;12.362;2023-05-16T06:18:55;14.60;89.60
6672;DHT22;3372;48.690;12.362;2023-05-16T06:21:21;14.60;88.40
6672;DHT22;3372;48.690;12.362;2023-05-16T06:23:46;14.70;87.40
6672;DHT22;3372;48.690;12.362;2023-05-16T06:26:12;14.80;87.30
6672;DHT22;3372;48.690;12.362;2023-05-16T06:28:37;14.80;86.50
6672;DHT22;3372;48.690;12.362;2023-05-16T06:31:03;15.00;86.80
6672;DHT22;3372;48.690;12.362;2023-05-16T06:33:28;15.00;87.10
6672;DHT22;3372;48.690;12.362;2023-05-16T06:35:54;15.00;86.60
6672;DHT22;3372;48.690;12.362;2023-05-16T06:38:20;15.30;86.70
6672;DHT22;3372;48.690;12.362;2023-05-16T06:40:45;15.30;84.90
6672;DHT22;3372;48.690;12.362;2023-05-16T06:43:11;15.30;84.70
6672;DHT22;3372;48.690;12.362;2023-05-16T06:45:37;15.40;83.70
6672;DHT22;3372;48.690;12.362;2023-05-16T06:48:03;15.50;80.90
6672;DHT22;3372;48.690;12.362;2023-05-16T06:50:29;15.50;77.70
6672;DHT22;3372;48.690;12.362;2023-05-16T06:52:54;15.40;77.60
6672;DHT22;3372;48.690;12.362;2023-05-16T06:55:20;15.90;76.30
6672;DHT22;3372;48.690;12.362;2023-05-16T06:57:45;15.60;74.60
6672;DHT22;3372;48.690;12.362;2023-05-16T07:00:12;15.20;77.20
6672;DHT22;3372;48.690;12.362;2023-05-16T07:02:38;15.10;78.20
6672;DHT22;3372;48.690;12.362;2023-05-16T07:05:05;15.20;80.70
6672;DHT22;3372;48.690;12.362;2023-05-16T07:07:31;15.50;80.70
6672;DHT22;3372;48.690;12.362;2023-05-16T07:09:56;15.80;78.50
6672;DHT22;3372;48.690;12.362;2023-05-16T07:12:22;16.00;76.40
6672;DHT22;3372;48.690;12.362;2023-05-16T07:14:48;16.10;75.60
6672;DHT22;3372;48.690;12.362;2023-05-16T07:17:13;16.10;75.10
6672;DHT22;3372;48.690;12.362;2023-05-16T07:19:39;16.30;75.10
6672;DHT22;3372;48.690;12.362;2023-05-16T07:22:05;16.40;74.00
6672;DHT22;3372;48.690;12.362;2023-05-16T07:24:30;16.70;70.20
6672;DHT22;3372;48.690;12.362;2023-05-16T07:26:56;16.60;67.00
6672;DHT22;3372;48.690;12.362;2023-05-16T07:29:21;17.10;69.70
6672;DHT22;3372;48.690;12.362;2023-05-16T07:31:47;16.70;63.50
6672;DHT22;3372;48.690;12.362;2023-05-16T07:34:12;16.40;65.90
6672;DHT22;3372;48.690;12.362;2023-05-16T07:36:38;16.80;63.60
6672;DHT22;3372;48.690;12.362;2023-05-16T07:39:04;17.10;66.30
6672;DHT22;3372;48.690;12.362;2023-05-16T07:41:29;17.30;60.10
6672;DHT22;3372;48.690;12.362;2023-05-16T07:43:55;17.60;58.30
6672;DHT22;3372;48.690;12.362;2023-05-16T07:46:21;17.70;55.70
6672;DHT22;3372;48.690;12.362;2023-05-16T07:48:47;18.00;53.10
6672;DHT22;3372;48.690;12.362;2023-05-16T07:51:12;18.00;56.90
6672;DHT22;3372;48.690;12.362;2023-05-16T07:53:38;18.10;57.70
6672;DHT22;3372;48.690;12.362;2023-05-16T07:56:03;17.90;56.10
6672;DHT22;3372;48.690;12.362;2023-05-16T07:58:29;17.60;54.70
6672;DHT22;3372;48.690;12.362;2023-05-16T08:00:55;17.60;57.60
6672;DHT22;3372;48.690;12.362;2023-05-16T08:03:21;17.90;57.80
6672;DHT22;3372;48.690;12.362;2023-05-16T08:05:47;18.30;55.10
6672;DHT22;3372;48.690;12.362;2023-05-16T08:08:13;18.40;51.00
6672;DHT22;3372;48.690;12.362;2023-05-16T08:10:39;18.20;48.50
6672;DHT22;3372;48.690;12.362;2023-05-16T08:13:04;17.80;49.00
6672;DHT22;3372;48.690;12.362;2023-05-16T08:15:30;17.80;54.70
6672;DHT22;3372;48.690;12.362;2023-05-16T08:17:59;17.70;52.70
6672;DHT22;3372;48.690;12.362;2023-05-16T08:20:25;17.80;54.50
6672;DHT22;3372;48.690;12.362;2023-05-16T08:22:51;17.50;52.30
6672;DHT22;3372;48.690;12.362;2023-05-16T08:25:17;17.60;54.40
6672;DHT22;3372;48.690;12.362;2023-05-16T08:27:45;17.40;53.40
6672;DHT22;3372;48.690;12.362;2023-05-16T08:30:11;17.20;54.50
6672;DHT22;3372;48.690;12.362;2023-05-16T08:32:37;17.40;55.80
6672;DHT22;3372;48.690;12.362;2023-05-16T08:35:03;17.40;54.40
6672;DHT22;3372;48.690;12.362;2023-05-16T08:37:28;17.40;53.10
6672;DHT22;3372;48.690;12.362;2023-05-16T08:39:54;17.20;48.30
6672;DHT22;3372;48.690;12.362;2023-05-16T08:42:20;17.30;53.40
6672;DHT22;3372;48.690;12.362;2023-05-16T08:44:46;17.20;49.00
6672;DHT22;3372;48.690;12.362;2023-05-16T08:47:17;17.10;50.20
6672;DHT22;3372;48.690;12.362;2023-05-16T08:49:43;17.10;49.30
6672;DHT22;3372;48.690;12.362;2023-05-16T08:52:13;17.10;48.40
6672;DHT22;3372;48.690;12.362;2023-05-16T08:54:42;17.00;48.40
6672;DHT22;3372;48.690;12.362;2023-05-16T08:57:09;17.00;49.30
6672;DHT22;3372;48.690;12.362;2023-05-16T08:59:35;17.00;48.60
6672;DHT22;3372;48.690;12.362;2023-05-16T09:02:01;17.00;49.30
6672;DHT22;3372;48.690;12.362;2023-05-16T09:04:27;16.90;46.90
6672;DHT22;3372;48.690;12.362;2023-05-16T09:06:53;17.00;48.20
6672;DHT22;3372;48.690;12.362;2023-05-16T09:09:19;17.10;48.80
6672;DHT22;3372;48.690;12.362;2023-05-16T09:11:44;17.40;49.80
6672;DHT22;3372;48.690;12.362;2023-05-16T09:14:10;17.60;48.60
6672;DHT22;3372;48.690;12.362;2023-05-16T09:16:36;17.70;47.10
6672;DHT22;3372;48.690;12.362;2023-05-16T09:19:02;17.80;48.90
6672;DHT22;3372;48.690;12.362;2023-05-16T09:21:30;18.10;46.90
6672;DHT22;3372;48.690;12.362;2023-05-16T09:24:06;18.00;46.20
6672;DHT22;3372;48.690;12.362;2023-05-16T09:26:33;18.10;45.60
6672;DHT22;3372;48.690;12.362;2023-05-16T09:28:59;18.30;45.50
6672;DHT22;3372;48.690;12.362;2023-05-16T09:31:27;18.30;43.20
6672;DHT22;3372;48.690;12.362;2023-05-16T09:34:01;18.30;43.60
6672;DHT22;3372;48.690;12.362;2023-05-16T09:36:27;18.50;45.50
6672;DHT22;3372;48.690;12.362;2023-05-16T09:38:52;18.50;42.10
6672;DHT22;3372;48.690;12.362;2023-05-16T09:41:20;18.60;42.60
6672;DHT22;3372;48.690;12.362;2023-05-16T09:43:46;18.80;44.50
6672;DHT22;3372;48.690;12.362;2023-05-16T09:46:16;19.30;45.10
6672;DHT22;3372;48.690;12.362;2023-05-16T09:48:47;19.60;42.40
6672;DHT22;3372;48.690;12.362;2023-05-16T09:51:13;19.70;42.60
6672;DHT22;3372;48.690;12.362;2023-05-16T09:53:40;19.70;40.90
6672;DHT22;3372;48.690;12.362;2023-05-16T09:56:12;19.80;41.50
6672;DHT22;3372;48.690;12.362;2023-05-16T09:58:39;20.30;40.60
6672;DHT22;3372;48.690;12.362;2023-05-16T10:01:07;20.50;40.40
6672;DHT22;3372;48.690;12.362;2023-05-16T10:03:34;20.10;37.80
6672;DHT22;3372;48.690;12.362;2023-05-16T10:06:02;20.30;39.70
6672;DHT22;3372;48.690;12.362;2023-05-16T10:08:30;19.70;33.70
6672;DHT22;3372;48.690;12.362;2023-05-16T10:10:56;19.60;37.30
6672;DHT22;3372;48.690;12.362;2023-05-16T10:13:23;19.70;40.00
6672;DHT22;3372;48.690;12.362;2023-05-16T10:15:55;19.30;37.60
6672;DHT22;3372;48.690;12.362;2023-05-16T10:18:22;19.20;39.60
6672;DHT22;3372;48.690;12.362;2023-05-16T10:20:52;19.40;40.70
6672;DHT22;3372;48.690;12.362;2023-05-16T10:23:19;19.20;39.50
6672;DHT22;3372;48.690;12.362;2023-05-16T10:25:47;19.00;41.40
6672;DHT22;3372;48.690;12.362;2023-05-16T10:28:14;19.20;41.00
6672;DHT22;3372;48.690;12.362;2023-05-16T10:30:43;19.30;41.30
6672;DHT22;3372;48.690;12.362;2023-05-16T10:33:15;19.40;40.90
6672;DHT22;3372;48.690;12.362;2023-05-16T10:35:42;19.30;37.80
6672;DHT22;3372;48.690;12.362;2023-05-16T10:38:09;19.30;42.00
6672;DHT22;3372;48.690;12.362;2023-05-16T10:40:37;19.30;38.60
6672;DHT22;3372;48.690;12.362;2023-05-16T10:43:04;19.10;40.90
6672;DHT22;3372;48.690;12.362;2023-05-16T10:45:30;19.30;41.90
6672;DHT22;3372;48.690;12.362;2023-05-16T10:47:58;19.40;41.10
6672;DHT22;3372;48.690;12.362;2023-05-16T10:50:43;19.10;40.50
6672;DHT22;3372;48.690;12.362;2023-05-16T10:53:23;19.20;38.30
6672;DHT22;3372;48.690;12.362;2023-05-16T11:01:21;19.10;38.20
6672;DHT22;3372;48.690;12.362;2023-05-16T11:06:27;19.30;32.50
6672;DHT22;3372;48.690;12.362;2023-05-16T11:11:53;19.20;35.20
6672;DHT22;3372;48.690;12.362;2023-05-16T11:14:27;19.30;34.60
6672;DHT22;3372;48.690;12.362;2023-05-16T11:17:12;19.20;32.00
6672;DHT22;3372;48.690;12.362;2023-05-16T11:19:43;19.30;31.40
6672;DHT22;3372;48.690;12.362;2023-05-16T11:27:23;19.40;34.40
6672;DHT22;3372;48.690;12.362;2023-05-16T11:29:49;19.20;33.10
6672;DHT22;3372;48.690;12.362;2023-05-16T11:32:19;19.00;36.70
6672;DHT22;3372;48.690;12.362;2023-05-16T11:34:46;19.30;37.00
6672;DHT22;3372;48.690;12.362;2023-05-16T11:37:13;19.40;37.00
6672;DHT22;3372;48.690;12.362;2023-05-16T11:39:39;19.50;37.30
6672;DHT22;3372;48.690;12.362;2023-05-16T11:42:05;19.30;34.60
6672;DHT22;3372;48.690;12.362;2023-05-16T11:44:30;19.30;35.90
6672;DHT22;3372;48.690;12.362;2023-05-16T11:46:56;19.40;37.00
6672;DHT22;3372;48.690;12.362;2023-05-16T11:49:22;19.40;35.70
6672;DHT22;3372;48.690;12.362;2023-05-16T11:51:47;19.40;35.10
6672;DHT22;3372;48.690;12.362;2023-05-16T11:54:14;19.10;29.60
6672;DHT22;3372;48.690;12.362;2023-05-16T11:56:40;18.70;31.40
6672;DHT22;3372;48.690;12.362;2023-05-16T11:59:06;18.30;34.20
6672;DHT22;3372;48.690;12.362;2023-05-16T12:01:38;18.10;32.80
6672;DHT22;3372;48.690;12.362;2023-05-16T12:04:12;17.80;34.00
6672;DHT22;3372;48.690;12.362;2023-05-16T12:06:38;17.80;33.70
6672;DHT22;3372;48.690;12.362;2023-05-16T12:09:05;17.70;33.00
6672;DHT22;3372;48.690;12.362;2023-05-16T12:11:41;17.60;32.30
6672;DHT22;3372;48.690;12.362;2023-05-16T12:14:09;17.60;31.60
6672;DHT22;3372;48.690;12.362;2023-05-16T12:16:36;17.60;31.90
6672;DHT22;3372;48.690;12.362;2023-05-16T12:19:04;17.60;31.40
6672;DHT22;3372;48.690;12.362;2023-05-16T12:21:33;17.60;32.30
6672;DHT22;3372;48.690;12.362;2023-05-16T12:23:59;17.20;30.10
6672;DHT22;3372;48.690;12.362;2023-05-16T12:26:30;17.10;31.70
6672;DHT22;3372;48.690;12.362;2023-05-16T12:29:00;16.80;33.80
6672;DHT22;3372;48.690;12.362;2023-05-16T12:31:35;16.80;33.60
6672;DHT22;3372;48.690;12.362;2023-05-16T12:34:01;16.90;34.50
6672;DHT22;3372;48.690;12.362;2023-05-16T12:36:31;16.50;36.60
6672;DHT22;3372;48.690;12.362;2023-05-16T12:39:02;16.50;38.80
6672;DHT22;3372;48.690;12.362;2023-05-16T12:41:30;16.40;42.10
6672;DHT22;3372;48.690;12.362;2023-05-16T12:46:42;16.00;43.10
6672;DHT22;3372;48.690;12.362;2023-05-16T12:49:08;16.00;45.50
6672;DHT22;3372;48.690;12.362;2023-05-16T12:51:33;16.00;43.30
6672;DHT22;3372;48.690;12.362;2023-05-16T12:54:10;16.00;43.10
6672;DHT22;3372;48.690;12.362;2023-05-16T12:56:40;16.00;43.70
6672;DHT22;3372;48.690;12.362;2023-05-16T12:59:06;15.90;43.60
6672;DHT22;3372;48.690;12.362;2023-05-16T13:01:33;15.90;43.20
6672;DHT22;3372;48.690;12.362;2023-05-16T13:03:59;16.00;44.50
6672;DHT22;3372;48.690;12.362;2023-05-16T13:06:25;16.20;44.60
6672;DHT22;3372;48.690;12.362;2023-05-16T13:08:51;16.30;44.40
6672;DHT22;3372;48.690;12.362;2023-05-16T13:11:17;16.50;45.60
6672;DHT22;3372;48.690;12.362;2023-05-16T13:13:43;16.10;41.80
6672;DHT22;3372;48.690;12.362;2023-05-16T13:16:09;16.20;43.80
6672;DHT22;3372;48.690;12.362;2023-05-16T13:18:34;16.20;44.40
6672;DHT22;3372;48.690;12.362;2023-05-16T13:21:01;16.30;44.00
6672;DHT22;3372;48.690;12.362;2023-05-16T13:23:29;16.10;44.50
6672;DHT22;3372;48.690;12.362;2023-05-16T13:25:54;16.10;41.90
6672;DHT22;3372;48.690;12.362;2023-05-16T13:28:20;15.60;42.60
6672;DHT22;3372;48.690;12.362;2023-05-16T13:30:46;15.50;43.30
6672;DHT22;3372;48.690;12.362;2023-05-16T13:33:11;15.40;45.60
6672;DHT22;3372;48.690;12.362;2023-05-16T13:35:37;15.70;44.60
6672;DHT22;3372;48.690;12.362;2023-05-16T13:38:03;15.70;45.60
6672;DHT22;3372;48.690;12.362;2023-05-16T13:40:29;15.80;43.60
6672;DHT22;3372;48.690;12.362;2023-05-16T13:42:55;15.80;43.60
6672;DHT22;3372;48.690;12.362;2023-05-16T13:45:21;15.90;44.60
6672;DHT22;3372;48.690;12.362;2023-05-16T13:47:46;15.70;44.40
6672;DHT22;3372;48.690;12.362;2023-05-16T13:50:12;15.70;46.60
6672;DHT22;3372;48.690;12.362;2023-05-16T13:52:38;15.60;47.40
6672;DHT22;3372;48.690;12.362;2023-05-16T13:55:05;15.50;49.90
6672;DHT22;3372;48.690;12.362;2023-05-16T13:57:30;15.40;51.60
6672;DHT22;3372;48.690;12.362;2023-05-16T13:59:57;15.30;51.60
6672;DHT22;3372;48.690;12.362;2023-05-16T14:02:23;15.50;52.40
6672;DHT22;3372;48.690;12.362;2023-05-16T14:04:50;15.30;53.60
6672;DHT22;3372;48.690;12.362;2023-05-16T14:07:16;15.20;55.20
6672;DHT22;3372;48.690;12.362;2023-05-16T14:09:41;15.10;58.40
6672;DHT22;3372;48.690;12.362;2023-05-16T14:12:08;15.30;57.50
6672;DHT22;3372;48.690;12.362;2023-05-16T14:14:34;15.50;55.80
6672;DHT22;3372;48.690;12.362;2023-05-16T14:17:00;15.30;57.10
6672;DHT22;3372;48.690;12.362;2023-05-16T14:19:26;15.20;57.80
6672;DHT22;3372;48.690;12.362;2023-05-16T14:21:51;15.10;60.70
6672;DHT22;3372;48.690;12.362;2023-05-16T14:24:17;15.10;62.80
6672;DHT22;3372;48.690;12.362;2023-05-16T14:26:43;15.30;62.80
6672;DHT22;3372;48.690;12.362;2023-05-16T14:29:08;15.60;61.70
6672;DHT22;3372;48.690;12.362;2023-05-16T14:31:34;15.60;60.50
6672;DHT22;3372;48.690;12.362;2023-05-16T14:34:03;15.70;58.30
6672;DHT22;3372;48.690;12.362;2023-05-16T14:36:28;15.50;60.60
6672;DHT22;3372;48.690;12.362;2023-05-16T14:38:54;15.30;61.80
6672;DHT22;3372;48.690;12.362;2023-05-16T14:41:20;15.10;61.30
6672;DHT22;3372;48.690;12.362;2023-05-16T14:43:46;15.20;62.40
6672;DHT22;3372;48.690;12.362;2023-05-16T14:46:12;15.20;62.50
6672;DHT22;3372;48.690;12.362;2023-05-16T14:48:38;15.10;62.80
6672;DHT22;3372;48.690;12.362;2023-05-16T14:51:04;15.20;61.10
6672;DHT22;3372;48.690;12.362;2023-05-16T14:53:30;15.10;62.50
6672;DHT22;3372;48.690;12.362;2023-05-16T14:55:56;15.10;65.40
6672;DHT22;3372;48.690;12.362;2023-05-16T14:58:21;15.10;65.00
6672;DHT22;3372;48.690;12.362;2023-05-16T15:00:48;15.20;63.50
6672;DHT22;3372;48.690;12.362;2023-05-16T15:03:15;15.20;63.40
6672;DHT22;3372;48.690;12.362;2023-05-16T15:05:41;15.30;64.40
6672;DHT22;3372;48.690;12.362;2023-05-16T15:08:07;15.40;64.60
6672;DHT22;3372;48.690;12.362;2023-05-16T15:10:32;15.30;65.10
6672;DHT22;3372;48.690;12.362;2023-05-16T15:12:58;15.20;65.60
6672;DHT22;3372;48.690;12.362;2023-05-16T15:15:23;15.30;64.80
6672;DHT22;3372;48.690;12.362;2023-05-16T15:17:49;15.40;65.20
6672;DHT22;3372;48.690;12.362;2023-05-16T15:20:14;15.30;65.40
6672;DHT22;3372;48.690;12.362;2023-05-16T15:22:40;15.10;64.30
6672;DHT22;3372;48.690;12.362;2023-05-16T15:25:07;15.30;65.10
6672;DHT22;3372;48.690;12.362;2023-05-16T15:27:32;15.20;64.50
6672;DHT22;3372;48.690;12.362;2023-05-16T15:29:59;15.00;66.00
6672;DHT22;3372;48.690;12.362;2023-05-16T15:32:25;15.10;65.20
6672;DHT22;3372;48.690;12.362;2023-05-16T15:34:51;15.00;66.80
6672;DHT22;3372;48.690;12.362;2023-05-16T15:37:16;14.80;70.70
6672;DHT22;3372;48.690;12.362;2023-05-16T15:39:42;14.70;72.20
6672;DHT22;3372;48.690;12.362;2023-05-16T15:42:08;14.50;74.50
6672;DHT22;3372;48.690;12.362;2023-05-16T15:44:33;14.50;72.50
6672;DHT22;3372;48.690;12.362;2023-05-16T15:47:00;14.30;71.90
6672;DHT22;3372;48.690;12.362;2023-05-16T15:49:26;14.40;73.10
6672;DHT22;3372;48.690;12.362;2023-05-16T15:51:52;14.40;71.80
6672;DHT22;3372;48.690;12.362;2023-05-16T15:54:17;14.60;71.70
6672;DHT22;3372;48.690;12.362;2023-05-16T15:56:43;14.70;71.70
6672;DHT22;3372;48.690;12.362;2023-05-16T15:59:08;14.60;69.30
6672;DHT22;3372;48.690;12.362;2023-05-16T16:01:34;14.50;70.40
6672;DHT22;3372;48.690;12.362;2023-05-16T16:03:59;14.70;69.10
6672;DHT22;3372;48.690;12.362;2023-05-16T16:06:25;14.70;70.00
6672;DHT22;3372;48.690;12.362;2023-05-16T16:08:51;14.80;68.90
6672;DHT22;3372;48.690;12.362;2023-05-16T16:11:18;14.70;67.70